Time;durP1;ratioP1;P1;durP2;ratioP2;P2;SDS_P1;SDS_P2;PMS_P1;PMS_P2;Temp;Humidity;BMP_temperature;BMP_pressure;BME280_temperature;BME280_humidity;BME280_pressure;Samples;Min_cycle;Max_cycle;Signal;HPM_P1;HPM_P2
2023/12/24 00:01:15;;;;;;;3.85;2.35;;;;;;;;;;5112940;28;20020;-68
2023/12/24 00:04:00;;;;;;;4.15;2.05;;;;;;;;;;5099963;28;20098;-68
2023/12/24 00:06:46;;;;;;;3.53;1.70;;;;;;;;;;5113800;28;20023;-68
2023/12/24 00:09:31;;;;;;;9.43;1.75;;;;;;;;;;5112837;28;20027;-68
2023/12/24 00:12:17;;;;;;;6.78;1.73;;;;;;;;;;5113223;28;20055;-67
2023/12/24 00:15:03;;;;;;;3.08;1.88;;;;;;;;;;5113980;28;20404;-68
2023/12/24 00:17:49;;;;;;;3.50;1.55;;;;;;;;;;5113389;28;20024;-68
2023/12/24 00:20:34;;;;;;;1.75;1.20;;;;;;;;;;5114085;28;20023;-68
2023/12/24 00:23:20;;;;;;;3.33;2.20;;;;;;;;;;5112992;28;20378;-68
2023/12/24 00:26:06;;;;;;;1.73;1.48;;;;;;;;;;5113892;28;20019;-68
2023/12/24 00:28:52;;;;;;;2.67;2.22;;;;;;;;;;5113133;28;20396;-68
2023/12/24 00:31:37;;;;;;;2.20;1.58;;;;;;;;;;5112988;28;20016;-68
2023/12/24 00:34:23;;;;;;;2.47;1.95;;;;;;;;;;5112901;28;20020;-68
2023/12/24 00:37:09;;;;;;;2.65;2.00;;;;;;;;;;5112763;28;20439;-68
2023/12/24 00:39:54;;;;;;;3.15;1.80;;;;;;;;;;5114083;28;20077;-68
2023/12/24 00:42:41;;;;;;;2.22;1.65;;;;;;;;;;5112984;28;20080;-68
2023/12/24 00:45:27;;;;;;;6.50;2.22;;;;;;;;;;5098998;28;20495;-68
2023/12/24 00:48:13;;;;;;;3.58;2.55;;;;;;;;;;5113816;28;20023;-67
2023/12/24 00:50:58;;;;;;;2.35;1.73;;;;;;;;;;5114101;28;20020;-68
2023/12/24 00:53:44;;;;;;;5.47;2.03;;;;;;;;;;5112381;28;20098;-67
2023/12/24 00:56:30;;;;;;;5.75;3.40;;;;;;;;;;5112616;28;20024;-68
2023/12/24 00:59:15;;;;;;;2.80;1.77;;;;;;;;;;5113619;28;20020;-68
2023/12/24 01:02:01;;;;;;;2.97;1.77;;;;;;;;;;5112417;28;20027;-68
2023/12/24 01:04:47;;;;;;;3.78;2.35;;;;;;;;;;5112625;28;20425;-68
2023/12/24 01:07:32;;;;;;;4.30;2.25;;;;;;;;;;5113676;28;20496;-68
2023/12/24 01:10:18;;;;;;;8.30;3.08;;;;;;;;;;5112310;28;20026;-68
2023/12/24 01:13:04;;;;;;;3.30;2.20;;;;;;;;;;5112646;28;20077;-67
2023/12/24 01:15:49;;;;;;;6.20;2.45;;;;;;;;;;5100179;28;20031;-67
2023/12/24 01:18:35;;;;;;;3.22;2.17;;;;;;;;;;5092436;28;20052;-67
2023/12/24 01:21:22;;;;;;;3.92;2.05;;;;;;;;;;5091068;28;20016;-68
2023/12/24 01:24:07;;;;;;;4.30;2.33;;;;;;;;;;5092008;28;20062;-67
2023/12/24 01:26:53;;;;;;;4.22;2.58;;;;;;;;;;5092778;28;20028;-67
2023/12/24 01:29:38;;;;;;;4.88;3.15;;;;;;;;;;5093800;28;20016;-67
2023/12/24 01:32:24;;;;;;;6.47;3.08;;;;;;;;;;5094729;28;20024;-68
2023/12/24 01:35:10;;;;;;;4.50;2.78;;;;;;;;;;5091921;28;20020;-68
2023/12/24 01:37:55;;;;;;;4.88;3.05;;;;;;;;;;5092689;28;20492;-67
2023/12/24 01:40:46;;;;;;;4.90;3.13;;;;;;;;;;5095163;28;20092;-67
2023/12/24 01:43:31;;;;;;;5.05;3.10;;;;;;;;;;5096663;28;20036;-68
2023/12/24 01:46:20;;;;;;;4.55;3.38;;;;;;;;;;5105901;28;20515;-67
2023/12/24 01:49:06;;;;;;;4.85;2.42;;;;;;;;;;5102072;28;20099;-67
2023/12/24 01:51:52;;;;;;;4.30;2.83;;;;;;;;;;5115683;28;20031;-68
2023/12/24 01:54:38;;;;;;;6.13;3.30;;;;;;;;;;5160060;22;20128;-67
2023/12/24 01:57:24;;;;;;;3.92;2.67;;;;;;;;;;5095658;28;20016;-66
2023/12/24 02:00:10;;;;;;;5.18;3.90;;;;;;;;;;5094994;28;20397;-67
2023/12/24 02:02:58;;;;;;;4.68;2.85;;;;;;;;;;5081367;28;20054;-67
2023/12/24 02:05:45;;;;;;;4.72;2.63;;;;;;;;;;5095396;28;20036;-66
2023/12/24 02:08:31;;;;;;;5.70;3.25;;;;;;;;;;5080259;28;20028;-67
2023/12/24 02:11:16;;;;;;;4.50;2.75;;;;;;;;;;5094807;28;20020;-66
2023/12/24 02:14:02;;;;;;;5.43;3.05;;;;;;;;;;5095446;28;20031;-67
2023/12/24 02:16:48;;;;;;;5.47;3.35;;;;;;;;;;5094959;28;20103;-67
2023/12/24 02:19:34;;;;;;;6.40;3.17;;;;;;;;;;5095165;28;20093;-67
2023/12/24 02:22:20;;;;;;;5.60;2.72;;;;;;;;;;5095848;28;20058;-67
2023/12/24 02:25:06;;;;;;;5.45;3.65;;;;;;;;;;5094041;28;20043;-67
2023/12/24 02:28:19;;;;;;;5.78;3.35;;;;;;;;;;5094603;28;20038;-67
2023/12/24 02:31:06;;;;;;;6.93;3.30;;;;;;;;;;5081294;28;20099;-67
2023/12/24 02:33:55;;;;;;;5.80;2.85;;;;;;;;;;5080581;28;20523;-67
2023/12/24 02:36:43;;;;;;;5.30;3.33;;;;;;;;;;5080092;28;20066;-67
2023/12/24 02:39:28;;;;;;;5.80;3.65;;;;;;;;;;5080417;28;20093;-67
2023/12/24 02:42:14;;;;;;;6.88;3.67;;;;;;;;;;5095086;28;20048;-67
2023/12/24 02:45:00;;;;;;;5.65;3.65;;;;;;;;;;5093610;28;20036;-67
2023/12/24 02:47:45;;;;;;;7.20;4.57;;;;;;;;;;5095714;28;20028;-67
2023/12/24 02:50:31;;;;;;;7.05;3.40;;;;;;;;;;5093678;28;20095;-67
2023/12/24 02:53:17;;;;;;;5.93;3.60;;;;;;;;;;5095345;28;20503;-67
2023/12/24 02:56:03;;;;;;;6.90;3.67;;;;;;;;;;5094727;28;20036;-67
2023/12/24 02:58:48;;;;;;;7.90;4.43;;;;;;;;;;5094737;28;20397;-67
2023/12/24 03:01:34;;;;;;;7.00;3.85;;;;;;;;;;5094626;28;20047;-67
2023/12/24 03:04:19;;;;;;;7.78;3.65;;;;;;;;;;5093490;28;20027;-67
2023/12/24 03:07:05;;;;;;;7.10;3.40;;;;;;;;;;5094540;28;20038;-67
2023/12/24 03:09:51;;;;;;;7.80;3.60;;;;;;;;;;5094415;28;20024;-67
2023/12/24 03:12:36;;;;;;;7.80;3.67;;;;;;;;;;5094920;28;20073;-67
2023/12/24 03:15:22;;;;;;;6.03;3.08;;;;;;;;;;5094595;28;20102;-67
2023/12/24 03:18:08;;;;;;;6.68;3.60;;;;;;;;;;5093520;28;20137;-67
2023/12/24 03:20:53;;;;;;;7.57;3.35;;;;;;;;;;5094408;28;20077;-67
2023/12/24 03:23:39;;;;;;;6.95;3.47;;;;;;;;;;5094742;28;20020;-67
2023/12/24 03:26:25;;;;;;;7.13;3.28;;;;;;;;;;5094427;28;20577;-67
2023/12/24 03:29:13;;;;;;;6.03;3.10;;;;;;;;;;5094090;28;20088;-67
2023/12/24 03:31:59;;;;;;;8.70;2.85;;;;;;;;;;5093440;28;20021;-67
2023/12/24 03:34:44;;;;;;;5.40;2.95;;;;;;;;;;5094300;28;20052;-67
2023/12/24 03:37:30;;;;;;;4.45;2.30;;;;;;;;;;5093863;28;20016;-67
2023/12/24 03:40:15;;;;;;;5.50;2.63;;;;;;;;;;5094246;28;20034;-67
2023/12/24 03:43:01;;;;;;;3.28;2.13;;;;;;;;;;5094173;28;20024;-67
2023/12/24 03:45:47;;;;;;;6.55;3.20;;;;;;;;;;5093606;28;20401;-67
2023/12/24 03:48:33;;;;;;;7.00;2.22;;;;;;;;;;5094291;28;20031;-67
2023/12/24 03:51:20;;;;;;;3.72;2.00;;;;;;;;;;5079177;28;20024;-67
2023/12/24 03:54:05;;;;;;;6.38;3.00;;;;;;;;;;5094059;28;20031;-67
2023/12/24 03:56:51;;;;;;;3.08;2.78;;;;;;;;;;5093840;28;20423;-67
2023/12/24 03:59:38;;;;;;;2.95;1.95;;;;;;;;;;5078983;28;20024;-67
2023/12/24 04:02:24;;;;;;;5.53;1.90;;;;;;;;;;5078427;28;20024;-67
2023/12/24 04:05:10;;;;;;;3.53;1.85;;;;;;;;;;5093570;28;20024;-67
2023/12/24 04:07:55;;;;;;;2.25;1.90;;;;;;;;;;5093508;28;20115;-67
2023/12/24 04:10:42;;;;;;;6.10;2.05;;;;;;;;;;5093671;28;20020;-67
2023/12/24 04:13:27;;;;;;;3.97;2.33;;;;;;;;;;5077467;28;20024;-67
2023/12/24 04:16:13;;;;;;;5.43;1.92;;;;;;;;;;5093223;28;20382;-67
2023/12/24 04:18:59;;;;;;;6.15;3.35;;;;;;;;;;5078549;28;20020;-67
2023/12/24 04:21:44;;;;;;;11.30;3.08;;;;;;;;;;5093407;28;20028;-67
2023/12/24 04:24:30;;;;;;;11.63;3.63;;;;;;;;;;5093450;28;20020;-67
2023/12/24 04:27:16;;;;;;;11.25;3.47;;;;;;;;;;5092369;28;20455;-67
2023/12/24 04:30:01;;;;;;;13.73;3.53;;;;;;;;;;5078132;28;20085;-66
2023/12/24 04:32:47;;;;;;;12.18;4.30;;;;;;;;;;5092938;28;20023;-67
2023/12/24 04:35:33;;;;;;;18.63;3.85;;;;;;;;;;5092914;28;20020;-67
2023/12/24 04:38:18;;;;;;;20.88;4.78;;;;;;;;;;5093290;28;20056;-67
2023/12/24 04:41:04;;;;;;;26.70;5.93;;;;;;;;;;5093046;28;20034;-67
2023/12/24 04:43:49;;;;;;;20.02;4.82;;;;;;;;;;5093001;28;20031;-67
2023/12/24 04:46:42;;;;;;;27.98;5.43;;;;;;;;;;5093382;28;20075;-67
2023/12/24 04:49:27;;;;;;;24.17;5.00;;;;;;;;;;5077241;28;20060;-67
2023/12/24 04:52:13;;;;;;;39.67;5.75;;;;;;;;;;5093282;28;20027;-67
2023/12/24 04:54:58;;;;;;;36.97;6.15;;;;;;;;;;5092608;28;20039;-67
2023/12/24 04:57:44;;;;;;;32.42;5.18;;;;;;;;;;5092977;28;20073;-67
2023/12/24 05:00:30;;;;;;;21.40;5.68;;;;;;;;;;5092613;28;20021;-66
2023/12/24 05:03:16;;;;;;;39.65;6.05;;;;;;;;;;5091938;28;20107;-67
2023/12/24 05:06:01;;;;;;;29.70;5.45;;;;;;;;;;5092777;28;20024;-67
2023/12/24 05:08:47;;;;;;;32.80;6.45;;;;;;;;;;5093474;28;20059;-67
2023/12/24 05:11:33;;;;;;;16.35;4.30;;;;;;;;;;5091918;28;20026;-67
2023/12/24 05:14:19;;;;;;;27.08;4.85;;;;;;;;;;5095637;28;20433;-67
2023/12/24 05:17:04;;;;;;;16.35;4.60;;;;;;;;;;5082327;28;20095;-67
2023/12/24 05:19:50;;;;;;;27.55;6.80;;;;;;;;;;5097088;28;20024;-66
2023/12/24 05:22:36;;;;;;;19.15;4.38;;;;;;;;;;5096988;28;20024;-67
2023/12/24 05:25:22;;;;;;;12.40;3.85;;;;;;;;;;5095802;28;20020;-67
2023/12/24 05:28:09;;;;;;;23.23;4.40;;;;;;;;;;5096564;28;20046;-66
2023/12/24 05:30:55;;;;;;;15.02;4.00;;;;;;;;;;5081818;28;20020;-67
2023/12/24 05:33:40;;;;;;;11.82;3.45;;;;;;;;;;5096435;28;20481;-67
2023/12/24 05:36:26;;;;;;;11.40;3.55;;;;;;;;;;5096576;28;20056;-67
2023/12/24 05:39:11;;;;;;;12.77;2.47;;;;;;;;;;5096724;28;20028;-67
2023/12/24 05:41:57;;;;;;;8.02;2.42;;;;;;;;;;5095850;28;20481;-67
2023/12/24 05:44:43;;;;;;;6.22;2.17;;;;;;;;;;5096170;28;20046;-67
2023/12/24 05:47:28;;;;;;;5.90;2.20;;;;;;;;;;5095561;28;20136;-67
2023/12/24 05:50:14;;;;;;;4.78;2.13;;;;;;;;;;5096215;28;20016;-67
2023/12/24 05:53:00;;;;;;;10.80;2.42;;;;;;;;;;5095169;28;20035;-67
2023/12/24 05:55:45;;;;;;;7.13;2.15;;;;;;;;;;5096458;28;20085;-67
2023/12/24 05:58:31;;;;;;;4.45;2.03;;;;;;;;;;5095963;28;20032;-67
2023/12/24 06:01:16;;;;;;;7.03;2.50;;;;;;;;;;5096191;28;20077;-67
2023/12/24 06:04:03;;;;;;;5.53;2.10;;;;;;;;;;5094800;28;20028;-67
2023/12/24 06:06:48;;;;;;;4.80;2.40;;;;;;;;;;5094768;28;20031;-67
2023/12/24 06:09:34;;;;;;;6.60;2.40;;;;;;;;;;5095840;28;20031;-67
2023/12/24 06:12:19;;;;;;;6.13;2.40;;;;;;;;;;5096045;28;20099;-67
2023/12/24 06:15:06;;;;;;;4.57;2.15;;;;;;;;;;5095598;28;20443;-67
2023/12/24 06:17:51;;;;;;;6.97;2.58;;;;;;;;;;5081042;28;20027;-67
2023/12/24 06:20:37;;;;;;;5.15;2.92;;;;;;;;;;5095620;28;20163;-67
2023/12/24 06:23:22;;;;;;;6.85;2.83;;;;;;;;;;5080410;28;20482;-67
2023/12/24 06:26:08;;;;;;;4.43;2.50;;;;;;;;;;5095116;28;20106;-67
2023/12/24 06:28:54;;;;;;;6.28;2.47;;;;;;;;;;5094879;28;20016;-67
2023/12/24 06:31:39;;;;;;;8.80;2.05;;;;;;;;;;5082858;28;20020;-67
2023/12/24 06:34:25;;;;;;;9.70;2.55;;;;;;;;;;5075517;28;20035;-67
2023/12/24 06:37:11;;;;;;;9.20;2.53;;;;;;;;;;5075169;28;20040;-67
2023/12/24 06:39:56;;;;;;;8.43;2.47;;;;;;;;;;5072865;28;20020;-67
2023/12/24 06:42:42;;;;;;;5.28;2.38;;;;;;;;;;5074052;28;20038;-67
2023/12/24 06:45:27;;;;;;;6.95;3.13;;;;;;;;;;5075072;28;20025;-67
2023/12/24 06:48:14;;;;;;;6.65;3.40;;;;;;;;;;5055598;28;20397;-67
2023/12/24 06:51:00;;;;;;;8.27;2.65;;;;;;;;;;5053916;28;20025;-67
2023/12/24 06:53:46;;;;;;;5.55;2.63;;;;;;;;;;5076643;28;20539;-66
2023/12/24 06:56:31;;;;;;;6.13;2.50;;;;;;;;;;5074718;28;20103;-68
2023/12/24 06:59:17;;;;;;;5.38;2.92;;;;;;;;;;5075043;28;20020;-67
2023/12/24 07:02:02;;;;;;;10.18;3.08;;;;;;;;;;5078062;28;20032;-67
2023/12/24 07:04:48;;;;;;;8.95;2.72;;;;;;;;;;5074293;28;20021;-67
2023/12/24 07:07:34;;;;;;;6.03;3.25;;;;;;;;;;5074713;28;20024;-67
2023/12/24 07:10:19;;;;;;;6.53;2.83;;;;;;;;;;5075034;28;20044;-67
2023/12/24 07:13:05;;;;;;;4.78;2.25;;;;;;;;;;5075315;28;20056;-67
2023/12/24 07:15:52;;;;;;;5.60;2.67;;;;;;;;;;5074652;28;20020;-67
2023/12/24 07:18:37;;;;;;;6.70;2.42;;;;;;;;;;5060449;28;20490;-67
2023/12/24 07:21:23;;;;;;;10.90;2.67;;;;;;;;;;5073032;28;20482;-67
2023/12/24 07:24:11;;;;;;;5.30;2.88;;;;;;;;;;5073852;28;20025;-67
2023/12/24 07:26:56;;;;;;;8.05;3.05;;;;;;;;;;5073813;28;20029;-68
2023/12/24 07:29:42;;;;;;;8.52;3.38;;;;;;;;;;5073501;28;20052;-67
2023/12/24 07:32:27;;;;;;;7.15;3.15;;;;;;;;;;5058701;28;20021;-67
2023/12/24 07:35:13;;;;;;;12.45;3.35;;;;;;;;;;5073193;28;20024;-67
2023/12/24 07:37:59;;;;;;;8.32;3.53;;;;;;;;;;5073901;28;20025;-67
2023/12/24 07:40:44;;;;;;;11.43;4.63;;;;;;;;;;5073007;28;20112;-67
2023/12/24 07:43:30;;;;;;;17.15;4.70;;;;;;;;;;5072493;28;20415;-67
2023/12/24 07:46:16;;;;;;;12.35;3.45;;;;;;;;;;5072740;28;20562;-68
2023/12/24 07:49:01;;;;;;;13.65;3.95;;;;;;;;;;5093710;28;20447;-68
2023/12/24 07:51:48;;;;;;;23.60;4.30;;;;;;;;;;5088788;28;20128;-67
2023/12/24 07:54:33;;;;;;;14.18;5.18;;;;;;;;;;5052098;28;20037;-67
2023/12/24 07:57:19;;;;;;;20.50;5.25;;;;;;;;;;5103023;22;20048;-68
2023/12/24 08:00:06;;;;;;;15.05;6.03;;;;;;;;;;5092154;28;20481;-68
2023/12/24 08:02:52;;;;;;;19.15;4.40;;;;;;;;;;5077196;28;20217;-68
2023/12/24 08:05:37;;;;;;;11.00;4.15;;;;;;;;;;5092800;28;20024;-68
2023/12/24 08:08:23;;;;;;;17.05;3.90;;;;;;;;;;5092169;28;20503;-68
2023/12/24 08:11:09;;;;;;;10.73;3.90;;;;;;;;;;5092102;28;20431;-68
2023/12/24 08:13:54;;;;;;;12.52;3.63;;;;;;;;;;5092079;28;20023;-68
2023/12/24 08:16:40;;;;;;;16.23;3.75;;;;;;;;;;5091937;28;20035;-68
2023/12/24 08:19:25;;;;;;;12.23;3.65;;;;;;;;;;5091819;28;20158;-68
2023/12/24 08:22:11;;;;;;;17.52;4.00;;;;;;;;;;5091682;28;20085;-68
2023/12/24 08:24:57;;;;;;;11.80;3.85;;;;;;;;;;5091150;28;20077;-68
2023/12/24 08:27:42;;;;;;;8.68;4.00;;;;;;;;;;5091716;28;20480;-68
2023/12/24 08:30:28;;;;;;;15.20;3.80;;;;;;;;;;5091717;28;20024;-68
2023/12/24 08:33:14;;;;;;;9.93;4.15;;;;;;;;;;5091262;28;20115;-68
2023/12/24 08:35:59;;;;;;;13.45;3.22;;;;;;;;;;5091835;28;20111;-68
2023/12/24 08:38:45;;;;;;;10.63;3.22;;;;;;;;;;5091392;28;20070;-68
2023/12/24 08:41:31;;;;;;;18.48;3.88;;;;;;;;;;5091709;28;20107;-68
2023/12/24 08:44:17;;;;;;;11.32;3.83;;;;;;;;;;5091653;28;20061;-68
2023/12/24 08:47:03;;;;;;;11.30;3.95;;;;;;;;;;5091003;28;20028;-68
2023/12/24 08:49:48;;;;;;;14.98;4.18;;;;;;;;;;5092590;28;20019;-68
2023/12/24 08:52:34;;;;;;;11.38;3.38;;;;;;;;;;5091574;28;20048;-68
2023/12/24 08:55:20;;;;;;;11.63;3.30;;;;;;;;;;5091610;28;20032;-68
2023/12/24 08:58:05;;;;;;;25.13;4.22;;;;;;;;;;5076173;28;20051;-68
2023/12/24 09:00:51;;;;;;;11.18;4.07;;;;;;;;;;5091435;28;20103;-68
2023/12/24 09:03:37;;;;;;;16.25;3.60;;;;;;;;;;5091355;28;20035;-68
2023/12/24 09:06:22;;;;;;;17.63;4.35;;;;;;;;;;5091250;28;20020;-68
2023/12/24 09:09:08;;;;;;;17.83;4.47;;;;;;;;;;5091295;28;20117;-68
2023/12/24 09:11:54;;;;;;;13.68;3.42;;;;;;;;;;5091636;28;20054;-68
2023/12/24 09:14:40;;;;;;;13.77;3.78;;;;;;;;;;5075972;28;20035;-68
2023/12/24 09:17:25;;;;;;;12.30;3.25;;;;;;;;;;5090762;28;20120;-68
2023/12/24 09:20:11;;;;;;;12.75;5.78;;;;;;;;;;5091436;28;20028;-68
2023/12/24 09:22:57;;;;;;;17.67;4.82;;;;;;;;;;5090840;28;20485;-70
2023/12/24 09:25:43;;;;;;;28.95;7.13;;;;;;;;;;5091187;28;20439;-68
2023/12/24 09:28:29;;;;;;;28.73;6.38;;;;;;;;;;5091389;28;20031;-68
2023/12/24 09:31:15;;;;;;;23.90;5.72;;;;;;;;;;5090170;28;20017;-68
2023/12/24 09:34:00;;;;;;;36.55;5.57;;;;;;;;;;5091176;28;20493;-68
2023/12/24 09:36:46;;;;;;;34.03;6.28;;;;;;;;;;5090824;28;20047;-69
2023/12/24 09:39:32;;;;;;;32.30;6.25;;;;;;;;;;5090541;28;20024;-69
2023/12/24 09:42:19;;;;;;;30.60;6.28;;;;;;;;;;5090659;28;20028;-69
2023/12/24 09:45:05;;;;;;;45.97;6.90;;;;;;;;;;5091938;28;20024;-69
2023/12/24 09:47:50;;;;;;;42.70;7.07;;;;;;;;;;5076255;28;20043;-69
2023/12/24 09:50:36;;;;;;;32.67;5.95;;;;;;;;;;5090951;28;20016;-69
2023/12/24 09:53:22;;;;;;;35.70;6.40;;;;;;;;;;5090700;28;20051;-69
2023/12/24 09:56:07;;;;;;;33.67;5.93;;;;;;;;;;5090622;28;20028;-69
2023/12/24 09:58:53;;;;;;;20.48;5.40;;;;;;;;;;5090823;28;20062;-69
2023/12/24 10:01:41;;;;;;;44.05;6.93;;;;;;;;;;5094564;28;20488;-68
2023/12/24 10:04:26;;;;;;;42.15;9.00;;;;;;;;;;5064845;28;20056;-69
2023/12/24 10:07:12;;;;;;;27.33;6.60;;;;;;;;;;5093699;28;20476;-68
2023/12/24 10:09:57;;;;;;;43.90;7.20;;;;;;;;;;5094178;28;20072;-69
2023/12/24 10:12:43;;;;;;;38.92;6.20;;;;;;;;;;5094358;28;20107;-69
2023/12/24 10:15:31;;;;;;;22.67;5.78;;;;;;;;;;5093623;28;20438;-68
2023/12/24 10:18:18;;;;;;;39.03;7.05;;;;;;;;;;5094650;28;20103;-69
2023/12/24 10:21:06;;;;;;;41.83;6.25;;;;;;;;;;5094155;28;20085;-69
2023/12/24 10:23:52;;;;;;;38.13;5.40;;;;;;;;;;5094666;28;20109;-69
2023/12/24 10:26:38;;;;;;;42.92;6.07;;;;;;;;;;5093746;28;20028;-68
2023/12/24 10:29:23;;;;;;;45.70;5.95;;;;;;;;;;5093694;28;20484;-68
2023/12/24 10:32:11;;;;;;;28.63;4.72;;;;;;;;;;5093871;28;20504;-69
2023/12/24 10:34:57;;;;;;;31.25;5.88;;;;;;;;;;5093852;28;20059;-68
2023/12/24 10:37:43;;;;;;;31.05;6.65;;;;;;;;;;5093481;28;20073;-69
2023/12/24 10:40:28;;;;;;;28.27;5.60;;;;;;;;;;5093797;28;20024;-68
2023/12/24 10:43:14;;;;;;;32.58;5.85;;;;;;;;;;5093556;28;20024;-68
2023/12/24 10:45:59;;;;;;;25.15;5.38;;;;;;;;;;5093366;28;20031;-69
2023/12/24 10:48:45;;;;;;;33.00;5.43;;;;;;;;;;5093900;28;20028;-69
2023/12/24 10:51:31;;;;;;;28.02;6.50;;;;;;;;;;5093763;28;20019;-68
2023/12/24 10:54:16;;;;;;;33.55;5.57;;;;;;;;;;5093744;28;20020;-69
2023/12/24 10:57:02;;;;;;;26.08;6.20;;;;;;;;;;5093072;28;20028;-68
2023/12/24 11:00:01;;;;;;;33.78;5.03;;;;;;;;;;5093572;28;20493;-68
2023/12/24 11:02:49;;;;;;;33.30;6.55;;;;;;;;;;5079810;28;20082;-69
2023/12/24 11:05:44;;;;;;;33.10;5.78;;;;;;;;;;5093484;28;20030;-69
2023/12/24 11:08:30;;;;;;;31.80;6.38;;;;;;;;;;5093285;28;20573;-68
2023/12/24 11:11:17;;;;;;;38.50;6.32;;;;;;;;;;5079859;28;20016;-68
2023/12/24 11:14:03;;;;;;;32.28;7.18;;;;;;;;;;5093348;28;20439;-70
2023/12/24 11:16:48;;;;;;;42.90;6.22;;;;;;;;;;5077780;28;20020;-69
2023/12/24 11:19:41;;;;;;;41.40;7.57;;;;;;;;;;5093481;28;20028;-69
2023/12/24 11:22:26;;;;;;;32.65;6.68;;;;;;;;;;5080342;28;20024;-70
2023/12/24 11:25:16;;;;;;;36.40;5.85;;;;;;;;;;5093223;28;20032;-69
2023/12/24 11:28:02;;;;;;;27.77;7.22;;;;;;;;;;5078665;28;20393;-70
2023/12/24 11:30:51;;;;;;;28.45;6.50;;;;;;;;;;5078020;28;20026;-69
2023/12/24 11:33:46;;;;;;;39.72;6.38;;;;;;;;;;5093063;28;20063;-69
2023/12/24 11:36:32;;;;;;;26.42;6.80;;;;;;;;;;5078489;28;20028;-69
2023/12/24 11:39:18;;;;;;;25.48;5.70;;;;;;;;;;5064641;28;20016;-70
2023/12/24 11:42:04;;;;;;;24.55;6.03;;;;;;;;;;5092786;28;20033;-70
2023/12/24 11:44:54;;;;;;;32.80;5.70;;;;;;;;;;5092792;28;20024;-69
2023/12/24 11:47:40;;;;;;;29.00;5.00;;;;;;;;;;5092604;28;20024;-69
2023/12/24 11:50:26;;;;;;;48.58;5.30;;;;;;;;;;5092552;28;20019;-70
2023/12/24 11:53:11;;;;;;;27.85;7.10;;;;;;;;;;5079283;28;20108;-69
2023/12/24 11:56:09;;;;;;;31.35;6.88;;;;;;;;;;5078278;28;20088;-70
2023/12/24 11:58:54;;;;;;;35.97;8.10;;;;;;;;;;5064454;28;20030;-69
2023/12/24 12:01:40;;;;;;;39.15;6.38;;;;;;;;;;5092637;28;20119;-70
2023/12/24 12:04:25;;;;;;;33.72;5.97;;;;;;;;;;5092828;28;20035;-70
2023/12/24 12:07:11;;;;;;;22.13;5.30;;;;;;;;;;5092644;28;20409;-70
2023/12/24 12:09:57;;;;;;;33.90;6.82;;;;;;;;;;5094238;28;20020;-70
2023/12/24 12:12:42;;;;;;;24.70;6.15;;;;;;;;;;5092372;28;20055;-70
2023/12/24 12:15:28;;;;;;;34.85;6.97;;;;;;;;;;5092258;28;20389;-70
2023/12/24 12:18:14;;;;;;;32.97;7.30;;;;;;;;;;5091860;28;20024;-70
2023/12/24 12:21:00;;;;;;;30.95;6.25;;;;;;;;;;5091954;28;20024;-70
2023/12/24 12:23:46;;;;;;;34.40;5.18;;;;;;;;;;5091989;28;20024;-69
2023/12/24 12:26:31;;;;;;;15.07;3.25;;;;;;;;;;5090960;28;20024;-69
2023/12/24 12:29:17;;;;;;;19.23;3.60;;;;;;;;;;5092442;28;20024;-70
2023/12/24 12:32:03;;;;;;;10.82;2.50;;;;;;;;;;5079719;28;20500;-69
2023/12/24 12:34:48;;;;;;;9.48;2.45;;;;;;;;;;5080847;28;20548;-69
2023/12/24 12:37:34;;;;;;;9.93;3.42;;;;;;;;;;5079843;28;20382;-70
2023/12/24 12:40:20;;;;;;;7.90;2.50;;;;;;;;;;5091447;28;20051;-70
2023/12/24 12:43:08;;;;;;;13.57;3.65;;;;;;;;;;5077493;28;20052;-70
2023/12/24 12:45:53;;;;;;;10.60;3.65;;;;;;;;;;5078408;28;20497;-70
2023/12/24 12:48:40;;;;;;;14.02;3.75;;;;;;;;;;5073402;28;20383;-70
2023/12/24 12:51:26;;;;;;;11.02;3.92;;;;;;;;;;5072140;28;20021;-70
2023/12/24 12:54:14;;;;;;;25.45;5.22;;;;;;;;;;5072678;28;20025;-70
2023/12/24 12:57:00;;;;;;;21.58;5.20;;;;;;;;;;5072017;28;20028;-69
2023/12/24 12:59:46;;;;;;;24.55;5.13;;;;;;;;;;5072527;28;20043;-70
2023/12/24 13:02:32;;;;;;;25.23;5.18;;;;;;;;;;5072380;28;20027;-69
2023/12/24 13:05:25;;;;;;;24.55;4.18;;;;;;;;;;5071295;28;20024;-70
2023/12/24 13:08:15;;;;;;;21.08;4.28;;;;;;;;;;5073759;28;20021;-70
2023/12/24 13:11:07;;;;;;;28.40;5.65;;;;;;;;;;5073764;28;20095;-70
2023/12/24 13:14:04;;;;;;;26.35;5.28;;;;;;;;;;5072111;28;20107;-70
2023/12/24 13:16:49;;;;;;;28.02;4.68;;;;;;;;;;5056671;28;20398;-70
2023/12/24 13:19:35;;;;;;;26.15;4.97;;;;;;;;;;5072522;28;20047;-70
2023/12/24 13:22:23;;;;;;;24.33;4.97;;;;;;;;;;5057434;28;20115;-70
2023/12/24 13:25:08;;;;;;;21.30;5.03;;;;;;;;;;5072098;28;20031;-70
2023/12/24 13:27:54;;;;;;;20.63;5.03;;;;;;;;;;5072362;28;20586;-70
2023/12/24 13:30:41;;;;;;;30.98;6.20;;;;;;;;;;5071895;28;20448;-69
2023/12/24 13:33:26;;;;;;;32.33;5.10;;;;;;;;;;5072609;28;20485;-69
2023/12/24 13:36:12;;;;;;;37.45;8.52;;;;;;;;;;5074784;28;20024;-69
2023/12/24 13:38:58;;;;;;;26.98;6.25;;;;;;;;;;5060847;28;20021;-69
2023/12/24 13:41:44;;;;;;;24.67;5.53;;;;;;;;;;5075802;28;20024;-69
2023/12/24 13:44:29;;;;;;;30.85;5.88;;;;;;;;;;5076127;28;20021;-69
2023/12/24 13:47:16;;;;;;;25.98;5.57;;;;;;;;;;5075587;28;20029;-69
2023/12/24 13:50:02;;;;;;;25.13;4.68;;;;;;;;;;5075777;28;20104;-69
2023/12/24 13:52:49;;;;;;;36.63;5.25;;;;;;;;;;5075279;28;20027;-70
2023/12/24 13:55:36;;;;;;;29.73;5.70;;;;;;;;;;5077031;28;20028;-69
2023/12/24 13:58:21;;;;;;;21.50;4.45;;;;;;;;;;5059574;28;20033;-69
2023/12/24 14:01:07;;;;;;;25.33;4.30;;;;;;;;;;5076950;28;20056;-69
2023/12/24 14:03:53;;;;;;;24.48;4.82;;;;;;;;;;5075767;28;20489;-69
2023/12/24 14:06:38;;;;;;;28.85;6.03;;;;;;;;;;5074378;28;20025;-69
2023/12/24 14:09:24;;;;;;;19.48;6.95;;;;;;;;;;5075391;28;20512;-70
2023/12/24 14:12:09;;;;;;;24.00;5.55;;;;;;;;;;5074419;28;20394;-70
2023/12/24 14:14:55;;;;;;;33.72;4.53;;;;;;;;;;5075431;28;20040;-70
2023/12/24 14:17:41;;;;;;;22.83;4.80;;;;;;;;;;5063399;28;20016;-69
2023/12/24 14:20:26;;;;;;;18.73;4.90;;;;;;;;;;5073749;28;20051;-69
2023/12/24 14:23:12;;;;;;;28.25;4.97;;;;;;;;;;5094542;28;20020;-70
2023/12/24 14:25:58;;;;;;;50.72;6.80;;;;;;;;;;5078864;28;20028;-70
2023/12/24 14:28:43;;;;;;;36.22;5.55;;;;;;;;;;5074278;28;20497;-70
2023/12/24 14:31:29;;;;;;;24.05;5.50;;;;;;;;;;5073522;28;20489;-70
2023/12/24 14:34:14;;;;;;;29.60;4.88;;;;;;;;;;5073714;28;20500;-70
2023/12/24 14:37:02;;;;;;;31.30;5.35;;;;;;;;;;5073871;28;20029;-70
2023/12/24 14:39:47;;;;;;;24.67;5.93;;;;;;;;;;5073908;28;20032;-70
2023/12/24 14:42:34;;;;;;;36.50;6.25;;;;;;;;;;5073498;28;20056;-70
2023/12/24 14:45:20;;;;;;;34.83;6.00;;;;;;;;;;5072788;28;20078;-69
2023/12/24 14:48:06;;;;;;;20.55;4.75;;;;;;;;;;5074028;28;20547;-70
2023/12/24 14:50:52;;;;;;;23.50;6.68;;;;;;;;;;5075326;28;20035;-70
2023/12/24 14:53:39;;;;;;;24.70;5.68;;;;;;;;;;5073803;28;20111;-69
2023/12/24 14:56:24;;;;;;;28.88;5.03;;;;;;;;;;5073435;28;20031;-70
2023/12/24 14:59:13;;;;;;;34.55;5.80;;;;;;;;;;5073477;28;20033;-70
2023/12/24 15:02:00;;;;;;;29.85;5.50;;;;;;;;;;5060536;28;20070;-70
2023/12/24 15:04:46;;;;;;;33.17;6.35;;;;;;;;;;5074263;28;20032;-70
2023/12/24 15:07:33;;;;;;;21.92;4.55;;;;;;;;;;5073084;28;20039;-70
2023/12/24 15:10:19;;;;;;;32.20;5.38;;;;;;;;;;5073563;28;20043;-70
2023/12/24 15:13:04;;;;;;;22.50;5.05;;;;;;;;;;5073761;28;20024;-70
2023/12/24 15:15:50;;;;;;;14.38;3.95;;;;;;;;;;5059798;28;20028;-70
2023/12/24 15:18:36;;;;;;;12.00;3.20;;;;;;;;;;5072994;28;20031;-70
2023/12/24 15:21:21;;;;;;;16.75;4.43;;;;;;;;;;5060180;28;20111;-70
2023/12/24 15:24:09;;;;;;;11.30;3.47;;;;;;;;;;5072816;28;20405;-70
2023/12/24 15:26:54;;;;;;;14.27;3.58;;;;;;;;;;5060328;28;20024;-70
2023/12/24 15:29:41;;;;;;;10.05;3.08;;;;;;;;;;5059511;28;20032;-70
2023/12/24 15:32:29;;;;;;;11.15;3.08;;;;;;;;;;5072520;28;20016;-70
2023/12/24 15:35:15;;;;;;;15.95;4.88;;;;;;;;;;5074184;28;20024;-70
2023/12/24 15:38:00;;;;;;;14.70;5.22;;;;;;;;;;5072223;28;20405;-70
2023/12/24 15:40:46;;;;;;;20.65;4.85;;;;;;;;;;5072527;28;20025;-70
2023/12/24 15:43:35;;;;;;;35.63;7.25;;;;;;;;;;5072804;28;20055;-70
2023/12/24 15:46:21;;;;;;;32.58;7.57;;;;;;;;;;5072666;28;20508;-70
2023/12/24 15:49:06;;;;;;;32.47;6.32;;;;;;;;;;5072520;28;20111;-70
2023/12/24 15:51:52;;;;;;;21.52;6.30;;;;;;;;;;5072761;28;20027;-70
2023/12/24 15:54:38;;;;;;;32.40;5.90;;;;;;;;;;5072290;28;20024;-70
2023/12/24 15:57:23;;;;;;;24.40;8.00;;;;;;;;;;5071133;28;20029;-70
2023/12/24 16:00:09;;;;;;;29.92;5.80;;;;;;;;;;5072478;28;20016;-70
2023/12/24 16:02:55;;;;;;;33.35;6.82;;;;;;;;;;5074235;28;20021;-70
2023/12/24 16:05:41;;;;;;;27.88;6.00;;;;;;;;;;5071871;28;20029;-70
2023/12/24 16:08:26;;;;;;;30.48;7.47;;;;;;;;;;5072292;28;20033;-70
2023/12/24 16:11:12;;;;;;;23.30;4.70;;;;;;;;;;5072331;28;20044;-70
2023/12/24 16:13:58;;;;;;;20.80;5.18;;;;;;;;;;5072140;28;20111;-70
2023/12/24 16:16:44;;;;;;;29.75;7.32;;;;;;;;;;5071844;28;20401;-70
2023/12/24 16:19:30;;;;;;;31.55;7.18;;;;;;;;;;5072110;28;20016;-70
2023/12/24 16:22:15;;;;;;;30.02;6.00;;;;;;;;;;5072379;28;20036;-70
2023/12/24 16:25:01;;;;;;;39.38;7.97;;;;;;;;;;5071926;28;20057;-69
2023/12/24 16:27:47;;;;;;;32.60;6.43;;;;;;;;;;5072693;28;20017;-70